createdAt,value
2018-11-23T00:00:30.364Z,95700.00
2018-11-23T00:03:00.186Z,95703.00
2018-11-23T00:05:29.505Z,95698.00
2018-11-23T00:07:59.421Z,95711.00
2018-11-23T00:10:29.791Z,95709.00
2018-11-23T00:12:58.920Z,95709.00
2018-11-23T00:15:28.002Z,95720.00
2018-11-23T00:17:57.322Z,95716.00
2018-11-23T00:20:28.594Z,95715.00
2018-11-23T00:22:57.749Z,95727.00
2018-11-23T00:25:28.020Z,95719.00
2018-11-23T00:27:57.732Z,95717.00
2018-11-23T00:30:28.693Z,95711.00
2018-11-23T00:32:58.510Z,95725.00
2018-11-23T00:35:28.903Z,95709.00
2018-11-23T00:37:58.091Z,95714.00
2018-11-23T00:40:28.465Z,95726.00
2018-11-23T00:42:58.040Z,95701.00
2018-11-23T00:45:27.558Z,95726.00
2018-11-23T00:47:57.476Z,95741.00
2018-11-23T00:50:27.898Z,95734.00
2018-11-23T00:52:58.439Z,95724.00
2018-11-23T00:55:28.185Z,95718.00
2018-11-23T00:57:57.403Z,95733.00
2018-11-23T01:00:32.467Z,95731.00
2018-11-23T01:03:02.836Z,95727.00
2018-11-23T01:05:32.003Z,95732.00
2018-11-23T01:08:01.237Z,95732.00
2018-11-23T01:10:30.931Z,95741.00
2018-11-23T01:13:00.364Z,95734.00
2018-11-23T01:15:29.433Z,95726.00
2018-11-23T01:17:58.668Z,95733.00
2018-11-23T01:20:28.251Z,95714.00
2018-11-23T01:22:58.180Z,95710.00
2018-11-23T01:25:28.210Z,95717.00
2018-11-23T01:27:57.662Z,95717.00
2018-11-23T01:30:29.966Z,95709.00
2018-11-23T01:32:59.266Z,95695.00
2018-11-23T01:35:29.324Z,95705.00
2018-11-23T01:37:58.529Z,95707.00
2018-11-23T01:40:28.956Z,95706.00
2018-11-23T01:42:58.543Z,95709.00
2018-11-23T01:45:27.603Z,95701.00
2018-11-23T01:47:56.776Z,95709.00
2018-11-23T01:50:27.275Z,95706.00
2018-11-23T01:52:56.579Z,95706.00
2018-11-23T01:55:26.288Z,95718.00
2018-11-23T01:57:56.628Z,95690.00
2018-11-23T02:00:27.116Z,95710.00
2018-11-23T02:02:56.560Z,95707.00
2018-11-23T02:05:25.751Z,95707.00
2018-11-23T02:07:55.739Z,95710.00
2018-11-23T02:10:26.999Z,95702.00
2018-11-23T02:12:56.149Z,95718.00
2018-11-23T02:15:25.796Z,95711.00
2018-11-23T02:17:55.900Z,95709.00
2018-11-23T02:20:27.027Z,95710.00
2018-11-23T02:22:56.183Z,95715.00
2018-11-23T02:25:25.958Z,95704.00
2018-11-23T02:27:56.059Z,95708.00
2018-11-23T02:30:26.784Z,95709.00
2018-11-23T02:32:56.076Z,95704.00
2018-11-23T02:35:27.349Z,95720.00
2018-11-23T02:37:56.410Z,95711.00
2018-11-23T02:40:27.350Z,95722.00
2018-11-23T02:42:59.658Z,95723.00
2018-11-23T02:45:28.804Z,95717.00
2018-11-23T02:47:58.028Z,95728.00
2018-11-23T02:50:27.461Z,95725.00
2018-11-23T02:52:56.624Z,95710.00
2018-11-23T02:55:27.399Z,95711.00
2018-11-23T02:57:56.623Z,95718.00
2018-11-23T03:00:26.334Z,95705.00
2018-11-23T03:02:56.450Z,95718.00
2018-11-23T03:05:26.328Z,95707.00
2018-11-23T03:07:56.632Z,95707.00
2018-11-23T03:10:27.551Z,95702.00
2018-11-23T03:12:56.694Z,95717.00
2018-11-23T03:15:26.428Z,95722.00
2018-11-23T03:17:56.961Z,95725.00
2018-11-23T03:20:26.511Z,95731.00
2018-11-23T03:22:56.664Z,95722.00
2018-11-23T03:25:26.675Z,95730.00
2018-11-23T03:27:56.700Z,95740.00
2018-11-23T03:30:26.674Z,95743.00
2018-11-23T03:32:56.814Z,95735.00
2018-11-23T03:35:26.831Z,95740.00
2018-11-23T03:37:56.843Z,95742.00
2018-11-23T03:40:26.739Z,95736.00
2018-11-23T03:42:56.991Z,95736.00
2018-11-23T03:45:26.991Z,95736.00
2018-11-23T03:47:56.877Z,95746.00
2018-11-23T03:50:29.214Z,95741.00
2018-11-23T03:52:58.488Z,95729.00
2018-11-23T03:55:28.579Z,95753.00
2018-11-23T03:57:57.728Z,95737.00
2018-11-23T04:00:27.161Z,95738.00
2018-11-23T04:02:56.992Z,95739.00
2018-11-23T04:05:28.281Z,95741.00
2018-11-23T04:07:57.481Z,95744.00
2018-11-23T04:10:28.247Z,95734.00
2018-11-23T04:12:57.453Z,95723.00
2018-11-23T04:15:28.465Z,95727.00
2018-11-23T04:17:57.676Z,95727.00
2018-11-23T04:25:23.895Z,95727.00
2018-11-23T04:27:53.115Z,95726.00
2018-11-23T04:30:22.275Z,95721.00
2018-11-23T04:32:51.445Z,95708.00
2018-11-23T04:35:20.710Z,95732.00
2018-11-23T04:37:49.813Z,95729.00
2018-11-23T04:40:19.714Z,95739.00
2018-11-23T04:42:48.855Z,95740.00
2018-11-23T04:45:18.695Z,95747.00
2018-11-23T04:47:47.770Z,95748.00
2018-11-23T04:50:17.088Z,95747.00
2018-11-23T04:52:46.250Z,95766.00
2018-11-23T04:55:15.365Z,95753.00
2018-11-23T04:57:44.707Z,95764.00
2018-11-23T05:00:15.350Z,95765.00
2018-11-23T05:02:45.300Z,95767.00
2018-11-23T05:05:15.085Z,95772.00
2018-11-23T05:07:45.575Z,95768.00
2018-11-23T05:10:15.746Z,95753.00
2018-11-23T05:12:44.939Z,95761.00
2018-11-23T05:15:15.388Z,95753.00
2018-11-23T05:17:44.793Z,95766.00
2018-11-23T05:20:14.623Z,95766.00
2018-11-23T05:22:44.019Z,95759.00
2018-11-23T05:25:14.746Z,95755.00
2018-11-23T05:27:43.865Z,95750.00
2018-11-23T05:30:16.060Z,95754.00
2018-11-23T05:32:45.273Z,95741.00
2018-11-23T05:35:15.462Z,95751.00
2018-11-23T05:37:44.549Z,95755.00
2018-11-23T05:40:16.372Z,95746.00
2018-11-23T05:42:45.467Z,95764.00
2018-11-23T05:45:17.376Z,95760.00
2018-11-23T05:47:46.889Z,95756.00
2018-11-23T05:50:18.360Z,95747.00
2018-11-23T05:52:47.544Z,95756.00
2018-11-23T05:55:16.744Z,95749.00
2018-11-23T05:57:45.868Z,95747.00
2018-11-23T06:00:27.500Z,95743.00
2018-11-23T06:02:57.741Z,95734.00
2018-11-23T06:05:27.409Z,95743.00
2018-11-23T06:07:56.617Z,95745.00
2018-11-23T06:10:25.782Z,95748.00
2018-11-23T06:12:54.966Z,95742.00
2018-11-23T06:15:24.952Z,95736.00
2018-11-23T06:17:54.282Z,95730.00
2018-11-23T06:20:24.950Z,95745.00
2018-11-23T06:22:54.743Z,95733.00
2018-11-23T06:25:34.631Z,95732.00
2018-11-23T06:28:03.813Z,95740.00
2018-11-23T06:30:32.918Z,95741.00
2018-11-23T06:33:49.771Z,95744.00
2018-11-23T06:36:19.012Z,95746.00
2018-11-23T06:38:48.141Z,95748.00
2018-11-23T06:41:18.520Z,95744.00
2018-11-23T06:43:48.043Z,95734.00
2018-11-23T06:46:17.234Z,95739.00
2018-11-23T06:48:46.417Z,95728.00
2018-11-23T06:51:15.590Z,95740.00
2018-11-23T06:53:44.793Z,95735.00
2018-11-23T06:56:14.077Z,95740.00
2018-11-23T06:58:43.224Z,95734.00
2018-11-23T07:01:12.331Z,95739.00
2018-11-23T07:03:41.616Z,95744.00
2018-11-23T07:06:10.805Z,95746.00
2018-11-23T07:08:40.014Z,95746.00
2018-11-23T07:11:09.199Z,95752.00
2018-11-23T07:13:38.361Z,95760.00
2018-11-23T07:16:07.556Z,95761.00
2018-11-23T07:18:36.716Z,95768.00
2018-11-23T07:21:06.288Z,95761.00
2018-11-23T07:23:35.499Z,95757.00
2018-11-23T07:26:04.565Z,95763.00
2018-11-23T07:28:33.801Z,95760.00
2018-11-23T07:31:02.989Z,95763.00
2018-11-23T07:33:32.207Z,95749.00
2018-11-23T07:36:01.394Z,95768.00
2018-11-23T07:38:30.597Z,95750.00
2018-11-23T07:41:16.760Z,95746.00
2018-11-23T07:43:45.983Z,95757.00
2018-11-23T07:46:16.320Z,95757.00
2018-11-23T07:48:45.484Z,95765.00
2018-11-23T07:51:14.639Z,95769.00
2018-11-23T07:53:43.819Z,95773.00
2018-11-23T07:56:13.000Z,95778.00
2018-11-23T07:58:43.106Z,95779.00
2018-11-23T08:01:12.287Z,95780.00
2018-11-23T08:03:41.545Z,95769.00
2018-11-23T08:06:10.652Z,95765.00
2018-11-23T08:08:39.842Z,95768.00
2018-11-23T08:11:09.545Z,95756.00
2018-11-23T08:13:39.243Z,95752.00
2018-11-23T08:16:08.448Z,95752.00
2018-11-23T08:18:37.644Z,95762.00
2018-11-23T08:21:06.828Z,95750.00
2018-11-23T08:23:36.078Z,95736.00
2018-11-23T08:26:05.188Z,95736.00
2018-11-23T08:28:34.352Z,95732.00
2018-11-23T08:31:03.509Z,95719.00
2018-11-23T08:33:32.589Z,95728.00
2018-11-23T08:36:01.814Z,95742.00
2018-11-23T08:38:31.008Z,95735.00
2018-11-23T08:41:00.203Z,95734.00
2018-11-23T08:43:31.657Z,95742.00
2018-11-23T08:46:00.869Z,95729.00
2018-11-23T08:48:30.080Z,95732.00
2018-11-23T08:50:59.198Z,95733.00
2018-11-23T08:53:34.630Z,95739.00
2018-11-23T08:56:04.486Z,95727.00
2018-11-23T08:58:33.609Z,95733.00
2018-11-23T09:01:02.807Z,95736.00
2018-11-23T09:03:32.004Z,95746.00
2018-11-23T09:06:01.224Z,95736.00
2018-11-23T09:08:30.391Z,95745.00
2018-11-23T09:10:59.525Z,95739.00
2018-11-23T09:13:29.501Z,95730.00
2018-11-23T09:15:59.372Z,95715.00
2018-11-23T09:18:29.292Z,95725.00
2018-11-23T09:20:59.383Z,95733.00
2018-11-23T09:23:29.351Z,95737.00
2018-11-23T09:25:59.444Z,95752.00
2018-11-23T09:28:29.363Z,95752.00
2018-11-23T09:30:59.351Z,95754.00
2018-11-23T09:33:29.411Z,95746.00
2018-11-23T09:35:59.543Z,95748.00
2018-11-23T09:38:29.514Z,95745.00
2018-11-23T09:40:59.403Z,95735.00
2018-11-23T09:43:29.527Z,95733.00
2018-11-23T09:45:59.555Z,95725.00
2018-11-23T09:48:29.560Z,95719.00
2018-11-23T09:50:59.589Z,95707.00
2018-11-23T09:53:29.654Z,95718.00
2018-11-23T09:55:59.493Z,95704.00
2018-11-23T09:58:29.611Z,95711.00
2018-11-23T10:00:59.624Z,95706.00
2018-11-23T10:03:29.732Z,95714.00
2018-11-23T10:05:59.631Z,95701.00
2018-11-23T10:08:29.764Z,95707.00
2018-11-23T10:10:59.826Z,95694.00
2018-11-23T10:13:29.695Z,95692.00
2018-11-23T10:15:59.745Z,95685.00
2018-11-23T10:18:29.727Z,95684.00
2018-11-23T10:20:59.809Z,95680.00
2018-11-23T10:23:29.852Z,95671.00
2018-11-23T10:25:59.792Z,95665.00
2018-11-23T10:28:29.851Z,95655.00
2018-11-23T10:30:59.763Z,95649.00
2018-11-23T10:33:29.933Z,95659.00
2018-11-23T10:35:59.971Z,95643.00
2018-11-23T10:38:29.911Z,95631.00
2018-11-23T10:40:59.935Z,95636.00
2018-11-23T10:43:30.027Z,95624.00
2018-11-23T10:45:59.928Z,95620.00
2018-11-23T10:48:29.944Z,95620.00
2018-11-23T10:51:00.039Z,95611.00
2018-11-23T10:53:30.024Z,95618.00
2018-11-23T10:56:01.084Z,95617.00
2018-11-23T10:58:30.258Z,95615.00
2018-11-23T11:03:09.643Z,95616.00
2018-11-23T11:05:44.116Z,95617.00
2018-11-23T11:08:13.224Z,95611.00
2018-11-23T11:10:42.435Z,95608.00
2018-11-23T11:13:11.636Z,95601.00
2018-11-23T11:15:40.820Z,95591.00
2018-11-23T11:18:09.971Z,95591.00
2018-11-23T11:20:39.151Z,95592.00
2018-11-23T11:23:08.308Z,95595.00
2018-11-23T11:25:37.457Z,95600.00
2018-11-23T11:28:06.599Z,95588.00
2018-11-23T11:30:35.674Z,95589.00
2018-11-23T11:33:04.912Z,95588.00
2018-11-23T11:35:34.051Z,95587.00
2018-11-23T11:38:03.203Z,95571.00
2018-11-23T11:40:32.359Z,95575.00
2018-11-23T11:43:01.493Z,95574.00
2018-11-23T11:45:30.596Z,95571.00
2018-11-23T11:48:00.365Z,95589.00
2018-11-23T11:50:30.224Z,95582.00
2018-11-23T11:53:00.253Z,95578.00
2018-11-23T11:55:30.376Z,95576.00
2018-11-23T11:58:00.255Z,95565.00
2018-11-23T12:00:30.376Z,95565.00
2018-11-23T12:03:00.346Z,95555.00
2018-11-23T12:05:30.375Z,95547.00
2018-11-23T12:08:00.373Z,95548.00
2018-11-23T12:10:30.432Z,95543.00
2018-11-23T12:13:00.360Z,95526.00
2018-11-23T12:15:30.451Z,95531.00
2018-11-23T12:18:00.565Z,95526.00
2018-11-23T12:20:30.448Z,95518.00
2018-11-23T12:23:00.443Z,95520.00
2018-11-23T12:25:30.584Z,95520.00
2018-11-23T12:28:00.644Z,95528.00
2018-11-23T12:30:30.545Z,95519.00
2018-11-23T12:33:00.632Z,95517.00
2018-11-23T12:35:30.746Z,95514.00
2018-11-23T12:38:00.672Z,95503.00
2018-11-23T12:40:30.651Z,95486.00
2018-11-23T12:43:00.640Z,95475.00
2018-11-23T12:45:30.640Z,95477.00
2018-11-23T12:48:00.663Z,95480.00
2018-11-23T12:50:30.695Z,95466.00
2018-11-23T12:53:06.281Z,95482.00
2018-11-23T12:55:30.736Z,95463.00
2018-11-23T12:58:00.753Z,95454.00
2018-11-23T13:00:30.731Z,95462.00
2018-11-23T13:03:03.019Z,95458.00
2018-11-23T13:05:33.117Z,95450.00
2018-11-23T13:08:03.725Z,95460.00
2018-11-23T13:10:35.023Z,95461.00
2018-11-23T13:13:04.390Z,95463.00
2018-11-23T13:15:33.625Z,95443.00
2018-11-23T13:18:02.788Z,95449.00
2018-11-23T13:20:31.917Z,95444.00
2018-11-23T13:23:01.072Z,95441.00
2018-11-23T13:25:32.241Z,95445.00
2018-11-23T13:28:01.573Z,95434.00
2018-11-23T13:30:32.426Z,95446.00
2018-11-23T13:33:01.624Z,95451.00
2018-11-23T13:35:30.998Z,95454.00
2018-11-23T13:38:01.140Z,95442.00
2018-11-23T13:40:31.492Z,95444.00
2018-11-23T13:43:01.592Z,95447.00
2018-11-23T13:45:32.600Z,95447.00
2018-11-23T13:48:01.786Z,95443.00
2018-11-23T13:50:31.007Z,95439.00
2018-11-23T13:53:02.166Z,95444.00
2018-11-23T13:55:31.307Z,95434.00
2018-11-23T13:58:01.329Z,95426.00
2018-11-23T14:00:31.318Z,95437.00
2018-11-23T14:03:01.164Z,95434.00
2018-11-23T14:05:32.180Z,95426.00
2018-11-23T14:08:02.499Z,95423.00
2018-11-23T14:10:31.946Z,95421.00
2018-11-23T14:13:01.212Z,95421.00
2018-11-23T14:15:31.838Z,95413.00
2018-11-23T14:18:01.694Z,95412.00
2018-11-23T14:20:31.471Z,95394.00
2018-11-23T14:23:01.287Z,95399.00
2018-11-23T14:25:31.937Z,95403.00
2018-11-23T14:28:01.521Z,95403.00
2018-11-23T14:30:32.805Z,95404.00
2018-11-23T14:33:02.730Z,95400.00
2018-11-23T14:35:32.915Z,95392.00
2018-11-23T14:38:02.457Z,95401.00
2018-11-23T14:40:31.550Z,95393.00
2018-11-23T14:43:01.522Z,95390.00
2018-11-23T14:45:32.720Z,95385.00
2018-11-23T14:48:04.319Z,95374.00
2018-11-23T14:50:34.715Z,95386.00
2018-11-23T14:53:03.953Z,95393.00
2018-11-23T14:55:33.059Z,95381.00
2018-11-23T14:58:02.227Z,95379.00
2018-11-23T15:00:32.849Z,95383.00
2018-11-23T15:03:02.851Z,95386.00
2018-11-23T15:05:32.053Z,95379.00
2018-11-23T15:08:01.776Z,95381.00
2018-11-23T15:10:32.823Z,95383.00
2018-11-23T15:13:03.558Z,95388.00
2018-11-23T15:15:34.062Z,95380.00
2018-11-23T15:18:03.157Z,95382.00
2018-11-23T15:20:36.710Z,95377.00
2018-11-23T15:23:13.555Z,95382.00
2018-11-23T15:25:42.696Z,95375.00
2018-11-23T15:28:12.673Z,95377.00
2018-11-23T15:30:42.798Z,95371.00
2018-11-23T15:33:14.251Z,95372.00
2018-11-23T15:35:44.317Z,95366.00
2018-11-23T15:38:16.874Z,95381.00
2018-11-23T15:40:46.056Z,95367.00
2018-11-23T15:43:16.167Z,95370.00
2018-11-23T15:45:46.102Z,95364.00
2018-11-23T15:48:15.334Z,95370.00
2018-11-23T15:50:44.913Z,95357.00
2018-11-23T15:53:15.817Z,95361.00
2018-11-23T15:55:44.946Z,95361.00
2018-11-23T15:58:15.478Z,95369.00
2018-11-23T16:00:45.941Z,95364.00
2018-11-23T16:03:15.921Z,95357.00
2018-11-23T16:05:45.091Z,95354.00
2018-11-23T16:08:17.532Z,95341.00
2018-11-23T16:10:46.661Z,95357.00
2018-11-23T16:13:15.720Z,95346.00
2018-11-23T16:15:44.839Z,95354.00
2018-11-23T16:18:14.356Z,95346.00
2018-11-23T16:20:45.188Z,95347.00
2018-11-23T16:23:15.794Z,95346.00
2018-11-23T16:25:47.011Z,95348.00
2018-11-23T16:28:16.197Z,95331.00
2018-11-23T16:30:46.901Z,95342.00
2018-11-23T16:33:17.650Z,95334.00
2018-11-23T16:35:46.731Z,95340.00
2018-11-23T16:38:20.348Z,95331.00
2018-11-23T16:40:51.287Z,95338.00
2018-11-23T16:43:20.496Z,95340.00
2018-11-23T16:45:49.798Z,95328.00
2018-11-23T16:48:19.577Z,95338.00
2018-11-23T16:50:49.971Z,95329.00
2018-11-23T16:53:19.124Z,95323.00
2018-11-23T16:55:48.200Z,95327.00
2018-11-23T16:58:17.347Z,95328.00
2018-11-23T17:00:47.743Z,95314.00
2018-11-23T17:03:18.593Z,95325.00
2018-11-23T17:05:50.047Z,95310.00
2018-11-23T17:08:19.216Z,95303.00
2018-11-23T17:10:48.431Z,95298.00
2018-11-23T17:13:19.308Z,95294.00
2018-11-23T17:15:48.355Z,95307.00
2018-11-23T17:18:17.546Z,95294.00
2018-11-23T17:20:46.631Z,95304.00
2018-11-23T17:23:15.736Z,95301.00
2018-11-23T17:25:44.876Z,95292.00
2018-11-23T17:28:14.035Z,95269.00
2018-11-23T17:30:43.203Z,95293.00
2018-11-23T17:33:12.520Z,95281.00
2018-11-23T17:35:41.683Z,95280.00
2018-11-23T17:38:10.705Z,95276.00
2018-11-23T17:40:40.810Z,95288.00
2018-11-23T17:43:10.410Z,95275.00
2018-11-23T17:45:39.837Z,95278.00
2018-11-23T17:48:08.943Z,95265.00
2018-11-23T17:50:38.958Z,95262.00
2018-11-23T17:53:08.080Z,95255.00
2018-11-23T17:55:37.153Z,95250.00
2018-11-23T17:58:06.391Z,95256.00
2018-11-23T18:00:39.205Z,95251.00
2018-11-23T18:03:05.093Z,95247.00
2018-11-23T18:05:34.877Z,95255.00
2018-11-23T18:08:04.805Z,95245.00
2018-11-23T18:10:36.124Z,95250.00
2018-11-23T18:13:05.175Z,95252.00
2018-11-23T18:15:35.260Z,95243.00
2018-11-23T18:18:05.319Z,95228.00
2018-11-23T18:20:34.923Z,95225.00
2018-11-23T18:23:04.715Z,95233.00
2018-11-23T18:25:35.609Z,95225.00
2018-11-23T18:28:04.780Z,95219.00
2018-11-23T18:30:34.786Z,95224.00
2018-11-23T18:33:06.099Z,95218.00
2018-11-23T18:35:35.228Z,95201.00
2018-11-23T18:38:04.374Z,95196.00
2018-11-23T18:40:37.527Z,95201.00
2018-11-23T18:43:03.496Z,95194.00
2018-11-23T18:45:33.430Z,95184.00
2018-11-23T18:48:03.589Z,95179.00
2018-11-23T18:50:33.601Z,95173.00
2018-11-23T18:53:03.552Z,95150.00
2018-11-23T18:55:33.564Z,95142.00
2018-11-23T18:58:03.642Z,95137.00
2018-11-23T19:00:33.633Z,95119.00
2018-11-23T19:03:03.777Z,95119.00
2018-11-23T19:05:34.091Z,95116.00
2018-11-23T19:08:04.192Z,95129.00
2018-11-23T19:10:34.207Z,95140.00
2018-11-23T19:13:04.228Z,95145.00
2018-11-23T19:15:34.435Z,95131.00
2018-11-23T19:18:04.228Z,95131.00
2018-11-23T19:20:33.302Z,95129.00
2018-11-23T19:23:02.509Z,95117.00
2018-11-23T19:25:31.623Z,95117.00
2018-11-23T19:28:00.784Z,95102.00
2018-11-23T19:30:29.840Z,95099.00
2018-11-23T19:32:59.064Z,95096.00
2018-11-23T19:35:28.189Z,95086.00
2018-11-23T19:37:57.334Z,95083.00
2018-11-23T19:40:27.669Z,95089.00
2018-11-23T19:42:56.799Z,95085.00
2018-11-23T19:45:25.872Z,95087.00
2018-11-23T19:47:55.952Z,95091.00
2018-11-23T19:50:25.079Z,95089.00
2018-11-23T19:52:54.306Z,95078.00
2018-11-23T19:55:23.484Z,95077.00
2018-11-23T19:57:52.843Z,95077.00
2018-11-23T20:00:24.684Z,95072.00
2018-11-23T20:02:53.779Z,95068.00
2018-11-23T20:05:23.486Z,95060.00
2018-11-23T20:07:54.695Z,95056.00
2018-11-23T20:10:24.718Z,95059.00
2018-11-23T20:12:56.737Z,95047.00
2018-11-23T20:15:25.736Z,95050.00
2018-11-23T20:17:54.954Z,95045.00
2018-11-23T20:20:24.053Z,95061.00
2018-11-23T20:22:53.261Z,95041.00
2018-11-23T20:25:22.482Z,95040.00
2018-11-23T20:27:52.955Z,95050.00
2018-11-23T20:30:22.004Z,95044.00
2018-11-23T20:32:51.185Z,95042.00
2018-11-23T20:35:21.749Z,95042.00
2018-11-23T20:37:50.844Z,95038.00
2018-11-23T20:40:21.670Z,95040.00
2018-11-23T20:42:50.779Z,95028.00
2018-11-23T20:45:19.925Z,95040.00
2018-11-23T20:47:49.069Z,95035.00
2018-11-23T20:50:18.796Z,95039.00
2018-11-23T20:52:47.986Z,95011.00
2018-11-23T20:55:20.963Z,95018.00
2018-11-23T20:57:50.177Z,95015.00
2018-11-23T21:00:21.446Z,95002.00
2018-11-23T21:02:52.574Z,94992.00
2018-11-23T21:05:22.534Z,94992.00
2018-11-23T21:07:52.034Z,94984.00
2018-11-23T21:10:23.792Z,94997.00
2018-11-23T21:12:53.147Z,94998.00
2018-11-23T21:15:31.735Z,94998.00
2018-11-23T21:18:03.676Z,94997.00
2018-11-23T21:20:32.955Z,94979.00
2018-11-23T21:23:02.631Z,94984.00
2018-11-23T21:25:31.697Z,94972.00
2018-11-23T21:28:00.831Z,94964.00
2018-11-23T21:30:29.926Z,94951.00
2018-11-23T21:32:59.017Z,94976.00
2018-11-23T21:35:28.112Z,94974.00
2018-11-23T21:37:57.279Z,94954.00
2018-11-23T21:40:27.380Z,94949.00
2018-11-23T21:42:56.546Z,94950.00
2018-11-23T21:45:25.672Z,94962.00
2018-11-23T21:47:54.785Z,94974.00
2018-11-23T21:50:25.670Z,94977.00
2018-11-23T21:52:53.075Z,94957.00
2018-11-23T21:55:23.683Z,94966.00
2018-11-23T21:57:54.436Z,94960.00
2018-11-23T22:00:23.657Z,94950.00
2018-11-23T22:02:52.799Z,94951.00
2018-11-23T22:05:22.035Z,94934.00
2018-11-23T22:07:51.158Z,94935.00
2018-11-23T22:10:20.874Z,94927.00
2018-11-23T22:12:49.926Z,94916.00
2018-11-23T22:15:22.587Z,94931.00
2018-11-23T22:17:54.315Z,94912.00
2018-11-23T22:20:24.087Z,94915.00
2018-11-23T22:22:53.328Z,94929.00
2018-11-23T22:25:23.502Z,94929.00
2018-11-23T22:27:52.663Z,94910.00
2018-11-23T22:30:30.378Z,94926.00
2018-11-23T22:33:00.009Z,94925.00
2018-11-23T22:35:30.360Z,94925.00
2018-11-23T22:37:59.573Z,94915.00
2018-11-23T22:40:28.716Z,94892.00
2018-11-23T22:42:59.084Z,94903.00
2018-11-23T22:45:28.120Z,94904.00
2018-11-23T22:47:57.283Z,94888.00
2018-11-23T22:50:27.376Z,94891.00
2018-11-23T22:52:56.564Z,94894.00
2018-11-23T22:55:25.697Z,94888.00
2018-11-23T22:57:54.868Z,94881.00
2018-11-23T23:00:32.023Z,94894.00
2018-11-23T23:03:01.107Z,94901.00
2018-11-23T23:05:30.331Z,94907.00
2018-11-23T23:07:59.456Z,94907.00
2018-11-23T23:10:28.646Z,94894.00
2018-11-23T23:12:57.705Z,94910.00
2018-11-23T23:15:27.457Z,94901.00
2018-11-23T23:17:56.584Z,94916.00
2018-11-23T23:20:25.733Z,94894.00
2018-11-23T23:22:54.918Z,94887.00
2018-11-23T23:25:24.062Z,94882.00
2018-11-23T23:27:53.137Z,94889.00
2018-11-23T23:30:22.263Z,94878.00
2018-11-23T23:32:51.453Z,94866.00
2018-11-23T23:35:21.050Z,94867.00
2018-11-23T23:37:50.220Z,94844.00
2018-11-23T23:40:19.315Z,94859.00
2018-11-23T23:42:48.884Z,94865.00
2018-11-23T23:45:18.992Z,94870.00
2018-11-23T23:47:48.077Z,94858.00
2018-11-23T23:50:22.104Z,94858.00
2018-11-23T23:52:51.846Z,94854.00
2018-11-23T23:55:20.985Z,94847.00
2018-11-23T23:57:50.162Z,94844.00
